Latest Weather Observations for Bathurst Airport

IDN60801

Issued at 4:33 pm EST Saturday 25 June 2016 (issued every 30 minutes, with the page automatically refreshed every 10 minutes)

About weather observations | Map of weather stations | Latest weather observations for NSW | Other Formats
Station Details ID: 063291 Name: BATHURST AIRPORT AWS Lat: -33.41 Lon: 149.65 Height: 744.5 m
Data from the previous 72 hours. | See also: Recent months at Bathurst Airport
Date/Time
EST
Temp
°C
App
Temp
°C
Dew
Point
°C
Rel
Hum
%
Delta-T
°C
Wind Press
QNH
hPa
Press
MSL
hPa
Rain since
9am
mm
Dir  Spd
km/h
Gust
km/h
Spd
kts
Gust
kts
25/04:30pm 4.3 -1.7 -1.3 67 2.1 SW 20 24 11 13 1019.6 1020.2 0.0
25/04:00pm 5.2 -0.8 -1.3 63 2.5 SW 20 24 11 13 1019.6 1020.2 0.0
25/03:30pm 5.7 -0.1 -0.4 65 2.4 WSW 20 28 11 15 1019.5 1020.1 0.0
25/03:00pm 5.9 -0.1 -1.3 60 2.8 SW 20 28 11 15 1019.3 1019.9 0.0
25/02:30pm 6.0 -0.4 -1.4 59 2.9 WSW 22 30 12 16 1019.2 1019.8 0.0
25/02:00pm 5.8 -0.2 -1.3 60 2.8 SW 20 28 11 15 1019.2 1019.8 0.0
25/01:30pm 5.5 -0.3 -1.4 61 2.7 SW 19 24 10 13 1019.3 1019.9 0.0
25/01:00pm 5.7 0.1 -0.1 66 2.3 WSW 19 26 10 14 1019.5 1020.1 0.0
25/12:30pm 5.0 -0.9 -0.6 67 2.2 WSW 20 28 11 15 1019.6 1020.2 0.0
25/12:00pm 3.9 -2.5 -1.7 67 2.1 SW 22 32 12 17 1019.9 1020.5 0.0
25/11:30am 4.0 -1.9 -0.6 72 1.8 WSW 20 26 11 14 1020.2 1020.9 0.0
25/11:00am 3.7 -1.9 -0.1 76 1.5 WSW 19 24 10 13 1020.4 1021.0 0.0
25/10:30am 2.6 -2.8 -1.4 75 1.5 WSW 17 24 9 13 1020.2 1020.9 0.0
25/10:00am 2.5 -2.1 -1.1 77 1.4 SW 13 17 7 9 1020.2 1020.9 0.0
25/09:48am 2.3 -2.7 -1.0 79 1.2 WSW 15 20 8 11 1020.1 1020.8 0.0
25/09:31am 2.5 -2.4 -0.3 82 1.1 WSW 15 20 8 11 1019.9 1020.5 0.0
25/09:30am 2.3 -2.7 -1.0 79 1.2 WSW 15 22 8 12 1019.9 1020.5 0.0
25/09:00am 1.9 -3.5 -1.0 81 1.1 SW 17 22 9 12 1019.8 1020.4 4.6
25/08:30am 1.3 -4.1 -1.4 82 1.0 SW 17 22 9 12 1019.5 1020.1 4.6
25/08:00am 0.9 -3.3 -1.0 87 0.7 SW 11 17 6 9 1019.2 1019.8 4.6
25/07:30am 0.4 -4.6 -1.5 87 0.7 SW 15 20 8 11 1019.0 1019.6 4.6
25/07:00am 0.8 -3.9 -1.6 84 0.9 WSW 13 17 7 9 1018.7 1019.3 4.6
25/06:30am 0.6 -4.1 -1.9 83 0.9 SW 13 17 7 9 1018.1 1018.7 4.6
25/06:00am 0.5 -5.3 -1.7 85 0.8 SW 19 26 10 14 1017.7 1018.2 4.6
25/05:30am 0.4 -6.0 -2.0 84 0.9 SW 22 30 12 16 1017.1 1017.7 4.6
25/05:00am 0.6 -7.3 -1.9 83 0.9 WSW 30 35 16 19 1016.6 1017.2 4.6
25/04:30am 0.9 -5.1 -1.2 86 0.8 WSW 20 30 11 16 1016.5 1017.0 4.6
25/04:00am 1.0 -5.3 -1.2 85 0.8 WSW 22 32 12 17 1016.5 1017.0 4.6
25/03:30am 0.9 -5.8 -1.2 86 0.8 SW 24 32 13 17 1016.4 1016.9 4.6
25/03:00am 1.4 -7.5 -1.8 79 1.2 WSW 35 44 19 24 1016.1 1016.6 4.6
25/02:43am 1.5 -6.3 -0.7 85 0.8 WSW 30 48 16 26 1015.9 1016.5 4.6
25/02:30am 1.6 -5.4 -0.3 87 0.7 WSW 26 39 14 21 1015.9 1016.5 4.6
25/02:00am 1.3 -5.2 0.4 94 0.3 WSW 24 28 13 15 1016.2 1016.7 4.6
25/01:30am 1.4 -5.2 -0.5 87 0.7 WSW 24 33 13 18 1015.8 1016.4 4.6
25/01:21am 1.5 -4.3 -0.3 88 0.7 WSW 20 32 11 17 1015.8 1016.4 4.6
25/01:00am 1.6 -3.4 1.2 97 0.2 WSW 17 20 9 11 1015.7 1016.3 4.6
25/12:30am 1.4 -4.0 1.0 97 0.2 WSW 19 26 10 14 1015.3 1015.8 4.6
25/12:21am 1.6 -4.0 0.9 95 0.3 WSW 20 28 11 15 1015.3 1015.8 4.6
25/12:00am 1.8 -2.9 0.6 92 0.5 W 15 22 8 12 1015.3 1015.8 4.4
 
Date/Time
EST
Temp
°C
App
Temp
°C
Dew
Point
°C
Rel
Hum
%
Delta-T
°C
Wind Press
QNH
hPa
Press
MSL
hPa
Rain since
9am
mm
Dir  Spd
km/h
Gust
km/h
Spd
kts
Gust
kts
24/11:41pm 1.7 -3.9 1.3 97 0.2 WSW 20 28 11 15 1015.1 1015.6 4.4
24/11:30pm 1.4 -4.2 1.3 99 0.0 WSW 20 28 11 15 1015.1 1015.6 4.4
24/11:08pm 1.9 -4.5 1.0 94 0.4 W 24 35 13 19 1015.2 1015.7 4.4
24/11:00pm 2.2 -2.9 0.9 91 0.5 WSW 17 30 9 16 1015.0 1015.5 4.4
24/10:30pm 2.6 -4.4 -0.2 82 1.1 WSW 26 35 14 19 1014.9 1015.4 4.4
24/10:00pm 2.4 -2.7 0.5 87 0.7 WSW 17 24 9 13 1014.8 1015.3 4.4
24/09:30pm 2.2 -5.9 0.7 90 0.6 SW 33 46 18 25 1014.6 1015.1 4.4
24/09:00pm 2.5 -5.6 -0.4 81 1.1 WSW 32 50 17 27 1014.1 1014.6 4.4
24/08:57pm 2.6 -5.5 -0.5 80 1.2 WSW 32 50 17 27 1014.0 1014.5 4.4
24/08:30pm 2.4 -5.5 0.9 90 0.6 WSW 32 46 17 25 1013.7 1014.2 4.4
24/08:19pm 2.9 -4.8 0.1 82 1.1 WSW 30 52 16 28 1013.5 1014.0 4.4
24/08:00pm 2.8 -5.3 -0.1 81 1.1 WSW 32 44 17 24 1013.3 1013.8 4.4
24/07:30pm 2.8 -5.4 0.2 83 1.0 WSW 33 56 18 30 1012.6 1013.1 4.4
24/07:27pm 2.6 -4.9 1.0 89 0.6 SW 30 56 16 30 1012.6 1013.1 4.4
24/07:03pm 2.6 -6.2 1.1 90 0.6 WSW 37 48 20 26 1011.9 1012.3 4.4
24/07:00pm 2.7 -5.8 1.1 89 0.6 WSW 35 48 19 26 1011.8 1012.2 4.4
24/06:49pm 2.3 -6.1 1.4 94 0.4 WSW 35 52 19 28 1011.5 1012.0 4.4
24/06:33pm 2.2 -5.9 1.0 92 0.5 WSW 33 52 18 28 1011.0 1011.5 4.2
24/06:30pm 2.1 -5.8 1.2 94 0.4 WSW 32 52 17 28 1011.0 1011.5 4.2
24/06:28pm 2.1 -5.8 1.2 94 0.4 WSW 32 52 17 28 1010.8 1011.2 4.2
24/06:20pm 1.8 -6.2 1.5 98 0.1 WSW 33 46 18 25 1010.8 1011.2 4.2
24/06:00pm 1.6 -7.6 1.5 99 0.0 WSW 39 52 21 28 1010.8 1011.2 4.0
24/05:53pm 2.0 -6.0 1.4 96 0.2 WSW 33 50 18 27 1010.7 1011.1 3.6
24/05:49pm 2.5 -4.6 1.6 94 0.4 WSW 28 50 15 27 1010.5 1010.9 3.4
24/05:44pm 2.6 -3.6 2.2 97 0.2 W 24 30 13 16 1010.4 1010.8 3.2
24/05:30pm 2.4 -5.4 2.0 97 0.2 W 32 44 17 24 1009.9 1010.4 3.2
24/05:00pm 3.0 -7.0 1.1 87 0.8 W 43 67 23 36 1009.2 1009.6 3.2
24/04:40pm 3.4 -5.4 1.1 85 0.9 W 37 56 20 30 1008.9 1009.3 3.2
24/04:37pm 3.5 -5.0 1.1 84 1.0 W 35 52 19 28 1008.7 1009.2 3.2
24/04:30pm 3.2 -4.6 1.4 88 0.7 W 32 50 17 27 1008.4 1008.8 3.2
24/04:24pm 3.3 -5.4 2.0 91 0.5 W 37 50 20 27 1008.4 1008.8 3.2
24/04:03pm 3.3 -4.3 2.7 96 0.3 W 32 43 17 23 1008.0 1008.4 3.0
24/04:00pm 3.4 -4.3 2.5 94 0.4 W 32 43 17 23 1007.8 1008.2 2.8
24/03:48pm 3.5 -3.4 2.5 93 0.4 WNW 28 52 15 28 1007.8 1008.2 2.6
24/03:30pm 3.6 -2.7 3.5 99 0.0 WNW 26 39 14 21 1007.5 1007.9 2.6
24/03:24pm 3.2 -3.2 3.1 99 0.0 NW 26 39 14 21 1007.3 1007.7 2.6
24/03:00pm 3.2 -2.5 3.1 99 0.0 WNW 22 30 12 16 1007.0 1007.4 2.6
24/02:58pm 2.9 -2.8 2.8 99 0.0 WNW 22 30 12 16 1007.0 1007.4 2.6
24/02:48pm 2.0 -3.9 1.9 99 0.0 WNW 22 30 12 16 1007.0 1007.4 2.6
24/02:31pm 0.9 -7.2 0.8 99 0.0 W 33 52 18 28 1007.3 1007.7 2.0
24/02:30pm 0.8 -7.7 0.7 99 0.0 W 35 52 19 28 1007.3 1007.7 1.8
24/02:16pm 2.9 -7.0 1.9 93 0.4 WNW 43 57 23 31 1007.0 1007.4 0.8
24/02:12pm 3.4 -6.7 1.6 88 0.7 WNW 44 57 24 31 1006.7 1007.1 0.4
24/02:05pm 4.9 -4.0 0.7 74 1.7 WNW 37 57 20 31 1006.2 1006.5 0.2
24/02:00pm 5.9 -2.0 0.9 70 2.1 WNW 32 43 17 23 1006.2 1006.5 0.2
24/01:30pm 5.8 -1.0 0.6 69 2.1 W 26 37 14 20 1006.0 1006.3 0.2
24/01:00pm 5.8 -2.5 2.1 77 1.6 W 35 46 19 25 1006.6 1007.0 0.2
24/12:44pm 7.8 -0.1 2.5 69 2.3 WNW 33 56 18 30 1006.5 1006.9 0.2
24/12:30pm 6.8 -0.2 4.1 83 1.2 W 30 41 16 22 1006.6 1007.0 0.2
24/12:00pm 5.8 -1.9 2.1 77 1.6 WNW 32 48 17 26 1006.9 1007.3 0.2
24/11:31am 5.2 -3.7 3.2 87 0.9 W 39 57 21 31 1007.3 1007.7 0.2
24/11:30am 5.2 -4.0 3.4 88 0.8 W 41 57 22 31 1007.5 1007.9 0.2
24/11:22am 6.1 -2.5 2.4 77 1.6 W 37 57 20 31 1007.5 1007.9 0.2
24/11:00am 6.2 -0.5 3.4 82 1.2 W 28 39 15 21 1007.5 1007.9 0.2
24/10:44am 6.6 -0.9 4.4 86 1.0 W 33 44 18 24 1007.5 1007.9 0.2
24/10:30am 6.8 -0.8 3.9 82 1.3 W 33 46 18 25 1007.6 1008.0 0.2
24/10:00am 5.5 -0.3 4.3 92 0.5 WSW 24 35 13 19 1007.8 1008.2 0.2
24/09:30am 5.6 -0.1 4.7 94 0.4 W 24 35 13 19 1007.6 1008.0 0.0
24/09:09am 5.6 0.3 5.0 96 0.3 W 22 28 12 15 1007.0 1007.4 0.0
24/09:00am 5.6 0.7 5.3 98 0.1 W 20 30 11 16 1006.9 1007.3 6.6
24/08:59am 5.6 0.7 5.3 98 0.1 W 20 30 11 16 1006.9 1007.3 6.6
24/08:30am 5.5 -0.1 5.4 99 0.0 WNW 24 32 13 17 1006.6 1007.0 6.2
24/08:21am 5.6 0.0 5.5 99 0.0 WNW 24 32 13 17 1006.4 1006.8 6.2
24/08:09am 5.6 -0.4 5.3 98 0.1 WNW 26 37 14 20 1006.1 1006.4 5.8
24/08:08am 5.6 -0.8 5.3 98 0.1 WNW 28 37 15 20 1006.1 1006.4 5.8
24/08:00am 5.6 -1.2 4.9 95 0.3 W 30 43 16 23 1006.0 1006.3 5.8
24/07:53am 5.9 -0.9 5.3 96 0.3 W 30 46 16 25 1006.0 1006.3 5.4
24/07:39am 6.7 1.7 6.3 97 0.2 NW 22 30 12 16 1005.5 1005.9 4.6
24/07:30am 6.7 1.2 6.1 96 0.3 NW 24 35 13 19 1005.5 1005.9 4.6
24/07:10am 6.6 1.5 6.2 97 0.2 NW 22 30 12 16 1005.3 1005.7 4.6
24/07:00am 6.6 1.2 6.3 98 0.1 NW 24 33 13 18 1005.3 1005.7 4.6
24/06:56am 6.8 1.7 6.2 96 0.3 NW 22 33 12 18 1005.3 1005.7 4.6
24/06:54am 6.8 2.1 6.2 96 0.3 NW 20 30 11 16 1005.3 1005.7 4.6
24/06:42am 7.0 2.4 6.3 95 0.3 NNW 20 28 11 15 1005.2 1005.6 4.4
24/06:30am 7.2 2.1 6.1 93 0.5 NNW 22 28 12 15 1005.3 1005.7 4.4
24/06:00am 7.1 2.4 5.9 92 0.6 NNW 20 30 11 16 1005.4 1005.8 4.4
24/05:30am 6.8 2.3 6.1 95 0.3 NNW 19 30 10 16 1005.5 1005.9 4.4
24/05:00am 6.3 1.4 4.9 91 0.6 NNW 20 30 11 16 1004.9 1005.2 4.4
24/04:30am 6.8 2.5 5.3 90 0.7 NW 17 20 9 11 1005.4 1005.8 4.4
24/04:00am 7.7 3.6 6.0 89 0.8 NW 17 24 9 13 1005.8 1006.2 4.4
24/03:30am 7.5 4.7 6.8 95 0.3 NNW 11 13 6 7 1006.0 1006.3 4.4
24/03:00am 8.0 4.0 6.6 91 0.7 NW 17 26 9 14 1006.3 1006.7 4.4
24/02:30am 8.3 4.0 7.7 96 0.3 NW 20 28 11 15 1006.4 1006.8 4.4
24/02:27am 8.3 3.6 7.7 96 0.3 NW 22 28 12 15 1006.4 1006.8 4.4
24/02:00am 8.7 4.6 7.9 95 0.4 NW 19 24 10 13 1006.3 1006.7 4.4
24/01:30am 8.1 5.2 8.0 99 0.0 NW 13 20 7 11 1006.3 1006.7 4.4
24/01:21am 8.2 4.9 8.1 99 0.0 WNW 15 22 8 12 1006.5 1006.9 4.4
24/01:00am 8.5 4.3 7.3 92 0.6 NW 19 24 10 13 1006.5 1006.9 3.8
24/12:32am 8.5 4.3 7.6 94 0.4 NNW 19 24 10 13 1006.8 1007.2 3.8
24/12:30am 8.5 4.4 7.7 95 0.4 NNW 19 22 10 12 1006.8 1007.2 3.8
24/12:03am 8.3 5.4 8.2 99 0.0 NW 13 20 7 11 1007.2 1007.6 3.8
24/12:00am 8.4 5.2 8.3 99 0.1 NW 15 20 8 11 1007.2 1007.6 3.8
 
Date/Time
EST
Temp
°C
App
Temp
°C
Dew
Point
°C
Rel
Hum
%
Delta-T
°C
Wind Press
QNH
hPa
Press
MSL
hPa
Rain since
9am
mm
Dir  Spd
km/h
Gust
km/h
Spd
kts
Gust
kts
23/11:48pm 8.3 4.7 8.2 99 0.0 WNW 17 24 9 13 1007.3 1007.7 3.8
23/11:47pm 8.3 4.7 8.2 99 0.0 WNW 17 22 9 12 1007.3 1007.7 3.8
23/11:30pm 8.3 3.3 8.2 99 0.0 WNW 24 33 13 18 1007.3 1007.7 3.6
23/11:14pm 8.5 4.5 8.4 99 0.1 NW 19 32 10 17 1007.5 1007.9 3.2
23/11:00pm 8.6 5.4 8.5 99 0.1 WNW 15 20 8 11 1007.3 1007.7 2.8
23/10:42pm 8.6 5.8 8.5 99 0.1 NW 13 19 7 10 1007.5 1007.9 2.4
23/10:30pm 8.7 4.2 8.6 99 0.1 NW 22 33 12 18 1007.3 1007.7 1.4
23/10:29pm 8.7 4.2 8.6 99 0.1 NW 22 33 12 18 1007.5 1007.9 1.4
23/10:12pm 8.6 3.7 8.5 99 0.1 NW 24 33 13 18 1007.5 1007.9 1.2
23/10:00pm 8.8 3.2 8.7 99 0.1 NW 28 33 15 18 1007.2 1007.6 1.2
23/09:52pm 8.8 3.2 8.8 100 0.0 NNW 28 43 15 23 1007.1 1007.5 1.2
23/09:30pm 8.6 4.1 8.6 100 0.0 NNW 22 32 12 17 1007.1 1007.5 0.8
23/09:00pm 8.5 4.4 8.5 100 0.0 N 20 26 11 14 1006.7 1007.1 0.2
23/08:53pm 8.4 4.2 8.4 100 0.0 N 20 24 11 13 1006.6 1007.0 0.2
23/08:30pm 8.2 4.0 8.2 100 0.0 N 20 26 11 14 1006.9 1007.3 0.2
23/08:00pm 8.1 4.4 8.1 100 0.0 N 17 20 9 11 1007.3 1007.7 0.2
23/07:30pm 8.1 4.8 8.1 100 0.0 N 15 17 8 9 1007.8 1008.2 0.2
23/07:03pm 7.9 4.9 7.9 100 0.0 N 13 17 7 9 1008.0 1008.4 0.2
23/07:00pm 7.9 4.9 7.9 100 0.0 N 13 17 7 9 1008.0 1008.4 0.2
23/06:30pm 7.9 4.2 7.9 100 0.0 N 17 22 9 12 1008.0 1008.4 0.0
23/06:28pm 8.0 4.3 8.0 100 0.0 N 17 22 9 12 1008.0 1008.4 0.0
23/06:00pm 8.2 4.5 8.1 99 0.1 N 17 22 9 12 1008.1 1008.5 0.0
23/05:30pm 8.6 4.5 7.7 94 0.4 NNW 19 24 10 13 1008.1 1008.5 0.0
23/05:17pm 8.7 4.5 7.3 91 0.7 NNW 19 22 10 12 1008.2 1008.6 0.0
23/05:00pm 8.8 4.5 6.9 88 0.9 NNW 19 24 10 13 1008.3 1008.7 0.0
23/04:30pm 9.0 4.6 6.4 84 1.3 NNW 19 26 10 14 1008.2 1008.6 0.0
23/04:00pm 9.1 4.7 6.5 84 1.3 N 19 24 10 13 1008.7 1009.2 0.0
23/03:30pm 9.3 4.8 5.9 79 1.6 NNW 19 26 10 14 1009.0 1009.4 0.0
23/03:00pm 9.7 3.9 6.1 78 1.7 NNW 26 32 14 17 1009.1 1009.5 0.0
23/02:30pm 9.7 3.8 5.9 77 1.8 NNW 26 32 14 17 1009.4 1009.8 0.0
23/02:00pm 9.7 4.2 6.1 78 1.7 NW 24 32 13 17 1009.9 1010.4 0.0
23/01:30pm 10.3 4.9 6.3 76 1.9 NNW 24 33 13 18 1010.6 1011.0 0.0
23/01:00pm 9.2 4.2 6.5 83 1.3 NNW 22 26 12 14 1011.1 1011.6 0.0
23/12:30pm 9.8 5.1 7.6 86 1.1 NNW 22 28 12 15 1011.8 1012.2 0.0
23/12:04pm 9.2 3.5 6.5 83 1.3 NNW 26 30 14 16 1012.3 1012.8 0.0
23/12:00pm 9.6 4.3 6.7 82 1.4 NNW 24 30 13 16 1012.4 1012.9 0.0
23/11:43am 8.2 2.8 6.2 87 1.0 NNW 24 32 13 17 1012.8 1013.3 0.0
23/11:41am 8.2 3.1 6.2 87 1.0 NNW 22 32 12 17 1012.9 1013.4 0.0
23/11:30am 8.0 3.4 6.3 89 0.8 N 20 28 11 15 1013.2 1013.7 0.0
23/11:00am 7.9 3.5 6.5 91 0.7 N 19 24 10 13 1013.5 1014.0 0.0
23/10:30am 7.3 3.3 6.6 95 0.3 N 17 20 9 11 1013.9 1014.4 0.0
23/10:00am 6.8 3.2 6.7 99 0.0 N 15 17 8 9 1014.3 1014.9 0.0
23/09:30am 6.1 2.4 6.1 100 0.0 N 15 17 8 9 1014.3 1014.9 0.0
23/09:00am 5.9 2.5 5.9 100 0.0 N 13 17 7 9 1014.2 1014.7 0.2
23/08:47am 5.4 1.9 5.4 100 0.0 N 13 15 7 8 1014.0 1014.5 0.2
23/08:30am 4.7 1.4 4.7 100 0.0 N 11 15 6 8 1014.1 1014.6 0.2
23/08:17am 3.9 0.9 3.9 100 0.0 NNE 9 11 5 6 1013.6 1014.1 0.2
23/08:00am 3.9 0.9 3.9 100 0.0 N 9 11 5 6 1013.7 1014.2 0.2
23/07:57am 3.9 0.9 3.9 100 0.0 NNE 9 11 5 6 1013.8 1014.3 0.2
23/07:45am 4.0 1.4 4.0 100 0.0 NNE 7 9 4 5 1013.7 1014.2 0.2
23/07:35am 3.6 0.9 3.6 100 0.0 NNE 7 9 4 5 1013.6 1014.1 0.2
23/07:30am 3.6 0.9 3.6 100 0.0 N 7 9 4 5 1013.6 1014.1 0.2
23/07:00am 3.9 1.2 3.9 100 0.0 N 7 7 4 4 1013.5 1014.0 0.2
23/06:30am 4.1 1.5 4.1 100 0.0 N 7 9 4 5 1013.6 1014.1 0.2
23/06:00am 4.3 1.9 4.3 100 0.0 NNW 6 7 3 4 1013.2 1013.7 0.2
23/05:30am 4.3 2.3 4.3 100 0.0 NNW 4 7 2 4 1012.8 1013.3 0.2
23/05:00am 4.0 1.0 3.9 99 0.0 N 9 11 5 6 1012.7 1013.2 0.2
23/04:30am 3.3 0.1 3.2 99 0.0 N 9 13 5 7 1012.7 1013.2 0.2
23/04:00am 3.8 1.1 3.7 99 0.0 N 7 11 4 6 1012.5 1013.0 0.2
23/03:30am 4.4 1.8 4.3 99 0.0 N 7 9 4 5 1012.9 1013.4 0.2
23/03:00am 5.3 2.1 5.2 99 0.0 N 11 13 6 7 1013.4 1013.9 0.2
23/02:30am 5.8 2.7 5.7 99 0.0 N 11 13 6 7 1013.9 1014.4 0.2
23/02:00am 5.9 3.2 5.8 99 0.0 N 9 11 5 6 1014.1 1014.6 0.2
23/01:30am 5.8 3.1 5.7 99 0.0 N 9 11 5 6 1014.2 1014.7 0.2
23/01:00am 5.8 2.4 5.7 99 0.0 N 13 15 7 8 1014.6 1015.1 0.2
23/12:30am 6.1 2.7 5.8 98 0.1 NNW 13 17 7 9 1014.4 1015.0 0.2
23/12:00am 5.8 2.4 5.7 99 0.0 N 13 15 7 8 1014.7 1015.2 0.2
 
Date/Time
EST
Temp
°C
App
Temp
°C
Dew
Point
°C
Rel
Hum
%
Delta-T
°C
Wind Press
QNH
hPa
Press
MSL
hPa
Rain since
9am
mm
Dir  Spd
km/h
Gust
km/h
Spd
kts
Gust
kts
22/11:30pm 5.7 3.0 5.6 99 0.0 N 9 9 5 5 1014.4 1015.0 0.2
22/11:00pm 5.7 3.0 5.6 99 0.0 N 9 11 5 6 1014.9 1015.4 0.2
22/10:30pm 5.5 3.1 5.2 98 0.1 NNE 7 9 4 5 1014.9 1015.4 0.2
22/10:00pm 5.2 2.3 4.9 98 0.1 N 9 11 5 6 1014.6 1015.1 0.2
22/09:30pm 5.6 2.7 4.7 94 0.4 N 9 13 5 7 1014.6 1015.1 0.2
22/09:00pm 5.8 2.2 5.2 96 0.3 NW 13 15 7 8 1014.4 1015.0 0.2
22/08:30pm 4.7 2.1 4.0 95 0.3 N 7 9 4 5 1014.1 1014.6 0.2
22/08:00pm 5.6 4.0 4.6 93 0.5 N 2 6 1 3 1013.7 1014.2 0.2
22/07:30pm 5.4 2.5 4.4 93 0.4 NNE 9 9 5 5 1013.6 1014.1 0.2
22/07:00pm 6.2 2.4 3.9 85 1.0 W 13 17 7 9 1013.3 1013.8 0.2
22/06:30pm 7.2 2.3 4.3 82 1.3 W 19 24 10 13 1012.7 1013.2 0.2
22/06:00pm 6.4 1.9 4.1 85 1.0 W 17 20 9 11 1012.6 1013.1 0.2
22/05:30pm 7.2 2.7 4.0 80 1.4 W 17 22 9 12 1011.8 1012.2 0.2
22/05:00pm 7.1 1.5 3.5 78 1.6 W 22 28 12 15 1011.4 1011.9 0.2

Other Formats:

Comma delimited format used in spreadsheet applications
http://www.bom.gov.au/fwo/IDN60801/IDN60801.94729.axf

JavaScript Object Notation format (JSON) in row-major order
http://www.bom.gov.au/fwo/IDN60801/IDN60801.94729.json